sensor_id;sensor_type;location;lat;lon;timestamp;P1;durP1;ratioP1;P2;durP2;ratioP2
61085;SDS011;46967;48.876;2.136;2022-08-27T00:01:58;2.45;;;1.40;;
61085;SDS011;46967;48.876;2.136;2022-08-27T00:04:23;3.33;;;1.50;;
61085;SDS011;46967;48.876;2.136;2022-08-27T00:06:49;3.60;;;1.60;;
61085;SDS011;46967;48.876;2.136;2022-08-27T00:09:15;4.47;;;1.63;;
61085;SDS011;46967;48.876;2.136;2022-08-27T00:11:40;2.28;;;1.10;;
61085;SDS011;46967;48.876;2.136;2022-08-27T00:14:06;2.83;;;1.20;;
61085;SDS011;46967;48.876;2.136;2022-08-27T00:16:31;5.43;;;1.50;;
61085;SDS011;46967;48.876;2.136;2022-08-27T00:18:56;3.85;;;1.33;;
61085;SDS011;46967;48.876;2.136;2022-08-27T00:21:22;2.05;;;1.17;;
61085;SDS011;46967;48.876;2.136;2022-08-27T00:23:47;3.58;;;1.20;;
61085;SDS011;46967;48.876;2.136;2022-08-27T00:26:13;2.33;;;1.30;;
61085;SDS011;46967;48.876;2.136;2022-08-27T00:28:39;4.43;;;1.42;;
61085;SDS011;46967;48.876;2.136;2022-08-27T00:31:05;1.38;;;1.10;;
61085;SDS011;46967;48.876;2.136;2022-08-27T00:33:31;3.35;;;1.17;;
61085;SDS011;46967;48.876;2.136;2022-08-27T00:35:57;3.50;;;1.33;;
61085;SDS011;46967;48.876;2.136;2022-08-27T00:38:23;3.42;;;1.25;;
61085;SDS011;46967;48.876;2.136;2022-08-27T00:40:49;3.00;;;1.48;;
61085;SDS011;46967;48.876;2.136;2022-08-27T00:45:52;2.85;;;1.42;;
61085;SDS011;46967;48.876;2.136;2022-08-27T00:48:19;4.75;;;1.30;;
61085;SDS011;46967;48.876;2.136;2022-08-27T00:53:17;5.72;;;1.60;;
61085;SDS011;46967;48.876;2.136;2022-08-27T00:55:51;5.07;;;1.35;;
61085;SDS011;46967;48.876;2.136;2022-08-27T00:58:28;4.70;;;1.20;;
61085;SDS011;46967;48.876;2.136;2022-08-27T01:00:56;2.45;;;1.10;;
61085;SDS011;46967;48.876;2.136;2022-08-27T01:03:24;4.63;;;1.50;;
61085;SDS011;46967;48.876;2.136;2022-08-27T01:05:50;3.50;;;1.10;;
61085;SDS011;46967;48.876;2.136;2022-08-27T01:08:18;3.95;;;1.20;;
61085;SDS011;46967;48.876;2.136;2022-08-27T01:10:46;3.72;;;1.40;;
61085;SDS011;46967;48.876;2.136;2022-08-27T01:13:14;1.65;;;1.35;;
61085;SDS011;46967;48.876;2.136;2022-08-27T01:15:41;2.92;;;1.40;;
61085;SDS011;46967;48.876;2.136;2022-08-27T01:18:07;6.03;;;1.38;;
61085;SDS011;46967;48.876;2.136;2022-08-27T01:20:41;3.78;;;1.60;;
61085;SDS011;46967;48.876;2.136;2022-08-27T01:24:01;6.07;;;1.40;;
61085;SDS011;46967;48.876;2.136;2022-08-27T01:26:15;3.95;;;1.30;;
61085;SDS011;46967;48.876;2.136;2022-08-27T01:28:41;3.08;;;1.20;;
61085;SDS011;46967;48.876;2.136;2022-08-27T01:31:08;3.08;;;1.33;;
61085;SDS011;46967;48.876;2.136;2022-08-27T01:33:34;2.20;;;1.20;;
61085;SDS011;46967;48.876;2.136;2022-08-27T01:36:00;2.03;;;1.35;;
61085;SDS011;46967;48.876;2.136;2022-08-27T01:38:25;3.90;;;1.85;;
61085;SDS011;46967;48.876;2.136;2022-08-27T01:40:51;2.70;;;1.50;;
61085;SDS011;46967;48.876;2.136;2022-08-27T01:43:18;2.00;;;1.25;;
61085;SDS011;46967;48.876;2.136;2022-08-27T01:45:48;1.65;;;1.20;;
61085;SDS011;46967;48.876;2.136;2022-08-27T01:48:18;2.53;;;1.20;;
61085;SDS011;46967;48.876;2.136;2022-08-27T01:50:45;3.05;;;1.15;;
61085;SDS011;46967;48.876;2.136;2022-08-27T01:53:19;1.35;;;1.00;;
61085;SDS011;46967;48.876;2.136;2022-08-27T01:55:47;2.85;;;1.40;;
61085;SDS011;46967;48.876;2.136;2022-08-27T01:58:14;4.78;;;1.40;;
61085;SDS011;46967;48.876;2.136;2022-08-27T02:00:45;3.50;;;1.50;;
61085;SDS011;46967;48.876;2.136;2022-08-27T02:03:13;3.15;;;1.23;;
61085;SDS011;46967;48.876;2.136;2022-08-27T02:05:42;3.47;;;1.50;;
61085;SDS011;46967;48.876;2.136;2022-08-27T02:08:08;4.72;;;1.30;;
61085;SDS011;46967;48.876;2.136;2022-08-27T02:10:37;1.88;;;1.20;;
61085;SDS011;46967;48.876;2.136;2022-08-27T02:13:03;3.40;;;1.10;;
61085;SDS011;46967;48.876;2.136;2022-08-27T02:15:31;3.58;;;1.60;;
61085;SDS011;46967;48.876;2.136;2022-08-27T02:17:58;3.20;;;1.20;;
61085;SDS011;46967;48.876;2.136;2022-08-27T02:20:24;2.30;;;1.10;;
61085;SDS011;46967;48.876;2.136;2022-08-27T02:22:50;2.00;;;0.98;;
61085;SDS011;46967;48.876;2.136;2022-08-27T02:25:16;4.10;;;1.20;;
61085;SDS011;46967;48.876;2.136;2022-08-27T02:27:44;3.35;;;1.25;;
61085;SDS011;46967;48.876;2.136;2022-08-27T02:30:11;6.72;;;1.40;;
61085;SDS011;46967;48.876;2.136;2022-08-27T02:32:39;2.83;;;1.55;;
61085;SDS011;46967;48.876;2.136;2022-08-27T02:35:04;3.50;;;1.25;;
61085;SDS011;46967;48.876;2.136;2022-08-27T02:37:31;3.55;;;1.17;;
61085;SDS011;46967;48.876;2.136;2022-08-27T02:39:56;5.95;;;1.30;;
61085;SDS011;46967;48.876;2.136;2022-08-27T02:42:22;2.65;;;1.20;;
61085;SDS011;46967;48.876;2.136;2022-08-27T02:44:47;4.47;;;1.50;;
61085;SDS011;46967;48.876;2.136;2022-08-27T02:47:12;3.55;;;1.35;;
61085;SDS011;46967;48.876;2.136;2022-08-27T02:49:39;3.28;;;1.10;;
61085;SDS011;46967;48.876;2.136;2022-08-27T02:52:04;7.65;;;1.40;;
61085;SDS011;46967;48.876;2.136;2022-08-27T02:54:30;4.30;;;1.48;;
61085;SDS011;46967;48.876;2.136;2022-08-27T02:56:56;4.03;;;1.40;;
61085;SDS011;46967;48.876;2.136;2022-08-27T02:59:21;5.05;;;1.30;;
61085;SDS011;46967;48.876;2.136;2022-08-27T03:01:47;5.18;;;1.30;;
61085;SDS011;46967;48.876;2.136;2022-08-27T03:04:12;1.75;;;0.93;;
61085;SDS011;46967;48.876;2.136;2022-08-27T03:06:38;1.95;;;0.93;;
61085;SDS011;46967;48.876;2.136;2022-08-27T03:09:03;3.03;;;1.02;;
61085;SDS011;46967;48.876;2.136;2022-08-27T03:11:29;2.75;;;1.17;;
61085;SDS011;46967;48.876;2.136;2022-08-27T03:13:55;5.57;;;1.30;;
61085;SDS011;46967;48.876;2.136;2022-08-27T03:16:22;4.55;;;1.27;;
61085;SDS011;46967;48.876;2.136;2022-08-27T03:18:48;2.67;;;1.20;;
61085;SDS011;46967;48.876;2.136;2022-08-27T03:21:17;2.67;;;1.20;;
61085;SDS011;46967;48.876;2.136;2022-08-27T03:23:45;8.07;;;1.45;;
61085;SDS011;46967;48.876;2.136;2022-08-27T03:26:12;4.22;;;1.25;;
61085;SDS011;46967;48.876;2.136;2022-08-27T03:28:38;3.45;;;1.60;;
61085;SDS011;46967;48.876;2.136;2022-08-27T03:31:05;5.95;;;1.23;;
61085;SDS011;46967;48.876;2.136;2022-08-27T03:33:35;2.80;;;1.10;;
61085;SDS011;46967;48.876;2.136;2022-08-27T03:36:03;4.43;;;1.23;;
61085;SDS011;46967;48.876;2.136;2022-08-27T03:38:30;2.05;;;1.17;;
61085;SDS011;46967;48.876;2.136;2022-08-27T03:40:55;5.15;;;1.20;;
61085;SDS011;46967;48.876;2.136;2022-08-27T03:43:21;4.82;;;1.45;;
61085;SDS011;46967;48.876;2.136;2022-08-27T03:45:47;3.25;;;1.25;;
61085;SDS011;46967;48.876;2.136;2022-08-27T03:48:14;5.07;;;1.50;;
61085;SDS011;46967;48.876;2.136;2022-08-27T03:50:41;4.18;;;1.20;;
61085;SDS011;46967;48.876;2.136;2022-08-27T03:53:08;4.35;;;1.20;;
61085;SDS011;46967;48.876;2.136;2022-08-27T03:55:34;6.10;;;1.40;;
61085;SDS011;46967;48.876;2.136;2022-08-27T03:58:00;6.20;;;1.35;;
61085;SDS011;46967;48.876;2.136;2022-08-27T04:00:26;5.07;;;1.20;;
61085;SDS011;46967;48.876;2.136;2022-08-27T04:02:52;2.00;;;1.42;;
61085;SDS011;46967;48.876;2.136;2022-08-27T04:05:18;4.00;;;1.13;;
61085;SDS011;46967;48.876;2.136;2022-08-27T04:07:44;3.85;;;1.10;;
61085;SDS011;46967;48.876;2.136;2022-08-27T04:10:10;2.92;;;1.10;;
61085;SDS011;46967;48.876;2.136;2022-08-27T04:12:37;2.03;;;1.10;;
61085;SDS011;46967;48.876;2.136;2022-08-27T04:15:03;4.35;;;1.42;;
61085;SDS011;46967;48.876;2.136;2022-08-27T04:17:30;3.97;;;1.30;;
61085;SDS011;46967;48.876;2.136;2022-08-27T04:19:56;3.70;;;1.33;;
61085;SDS011;46967;48.876;2.136;2022-08-27T04:22:23;4.07;;;1.23;;
61085;SDS011;46967;48.876;2.136;2022-08-27T04:24:49;3.85;;;1.23;;
61085;SDS011;46967;48.876;2.136;2022-08-27T04:27:15;3.13;;;1.30;;
61085;SDS011;46967;48.876;2.136;2022-08-27T04:29:40;4.75;;;1.50;;
61085;SDS011;46967;48.876;2.136;2022-08-27T04:32:06;4.32;;;1.30;;
61085;SDS011;46967;48.876;2.136;2022-08-27T04:34:31;3.28;;;1.20;;
61085;SDS011;46967;48.876;2.136;2022-08-27T04:36:57;3.10;;;1.33;;
61085;SDS011;46967;48.876;2.136;2022-08-27T04:39:24;3.50;;;1.27;;
61085;SDS011;46967;48.876;2.136;2022-08-27T04:41:51;4.82;;;1.25;;
61085;SDS011;46967;48.876;2.136;2022-08-27T04:44:18;3.22;;;1.10;;
61085;SDS011;46967;48.876;2.136;2022-08-27T04:46:44;8.07;;;1.60;;
61085;SDS011;46967;48.876;2.136;2022-08-27T04:49:12;5.13;;;1.73;;
61085;SDS011;46967;48.876;2.136;2022-08-27T04:51:39;3.42;;;1.50;;
61085;SDS011;46967;48.876;2.136;2022-08-27T04:54:05;3.95;;;1.67;;
61085;SDS011;46967;48.876;2.136;2022-08-27T04:56:31;4.43;;;1.35;;
61085;SDS011;46967;48.876;2.136;2022-08-27T04:58:57;6.10;;;1.27;;
61085;SDS011;46967;48.876;2.136;2022-08-27T05:01:27;5.30;;;1.30;;
61085;SDS011;46967;48.876;2.136;2022-08-27T05:03:53;3.25;;;1.35;;
61085;SDS011;46967;48.876;2.136;2022-08-27T05:06:19;5.00;;;1.40;;
61085;SDS011;46967;48.876;2.136;2022-08-27T05:08:49;4.40;;;1.52;;
61085;SDS011;46967;48.876;2.136;2022-08-27T05:11:16;4.40;;;1.38;;
61085;SDS011;46967;48.876;2.136;2022-08-27T05:13:44;3.28;;;1.27;;
61085;SDS011;46967;48.876;2.136;2022-08-27T05:16:12;5.35;;;1.55;;
61085;SDS011;46967;48.876;2.136;2022-08-27T05:18:39;6.78;;;1.48;;
61085;SDS011;46967;48.876;2.136;2022-08-27T05:21:06;5.93;;;1.48;;
61085;SDS011;46967;48.876;2.136;2022-08-27T05:23:33;4.00;;;1.48;;
61085;SDS011;46967;48.876;2.136;2022-08-27T05:25:59;5.63;;;1.42;;
61085;SDS011;46967;48.876;2.136;2022-08-27T05:28:25;2.90;;;1.17;;
61085;SDS011;46967;48.876;2.136;2022-08-27T05:30:53;3.35;;;1.50;;
61085;SDS011;46967;48.876;2.136;2022-08-27T05:33:21;5.00;;;1.75;;
61085;SDS011;46967;48.876;2.136;2022-08-27T05:35:52;8.82;;;2.10;;
61085;SDS011;46967;48.876;2.136;2022-08-27T05:38:19;3.08;;;1.42;;
61085;SDS011;46967;48.876;2.136;2022-08-27T05:40:46;5.10;;;1.40;;
61085;SDS011;46967;48.876;2.136;2022-08-27T05:43:12;5.28;;;1.55;;
61085;SDS011;46967;48.876;2.136;2022-08-27T05:45:47;4.55;;;1.38;;
61085;SDS011;46967;48.876;2.136;2022-08-27T05:48:13;5.13;;;1.40;;
61085;SDS011;46967;48.876;2.136;2022-08-27T05:50:40;5.72;;;1.50;;
61085;SDS011;46967;48.876;2.136;2022-08-27T05:53:07;6.65;;;1.42;;
61085;SDS011;46967;48.876;2.136;2022-08-27T05:55:40;3.25;;;1.33;;
61085;SDS011;46967;48.876;2.136;2022-08-27T05:58:07;5.32;;;1.45;;
61085;SDS011;46967;48.876;2.136;2022-08-27T06:00:53;4.70;;;1.73;;
61085;SDS011;46967;48.876;2.136;2022-08-27T06:03:31;7.25;;;1.85;;
61085;SDS011;46967;48.876;2.136;2022-08-27T06:05:59;3.63;;;1.80;;
61085;SDS011;46967;48.876;2.136;2022-08-27T06:08:28;5.90;;;1.50;;
61085;SDS011;46967;48.876;2.136;2022-08-27T06:10:54;7.28;;;1.83;;
61085;SDS011;46967;48.876;2.136;2022-08-27T06:13:20;5.57;;;1.60;;
61085;SDS011;46967;48.876;2.136;2022-08-27T06:15:45;6.05;;;1.70;;
61085;SDS011;46967;48.876;2.136;2022-08-27T06:18:11;6.05;;;1.63;;
61085;SDS011;46967;48.876;2.136;2022-08-27T06:20:37;6.72;;;1.80;;
61085;SDS011;46967;48.876;2.136;2022-08-27T06:23:03;6.85;;;1.48;;
61085;SDS011;46967;48.876;2.136;2022-08-27T06:25:28;5.53;;;1.55;;
61085;SDS011;46967;48.876;2.136;2022-08-27T06:27:56;7.45;;;1.50;;
61085;SDS011;46967;48.876;2.136;2022-08-27T06:30:21;5.75;;;1.73;;
61085;SDS011;46967;48.876;2.136;2022-08-27T06:32:47;5.60;;;1.60;;
61085;SDS011;46967;48.876;2.136;2022-08-27T06:35:12;4.43;;;1.42;;
61085;SDS011;46967;48.876;2.136;2022-08-27T06:37:37;5.03;;;1.77;;
61085;SDS011;46967;48.876;2.136;2022-08-27T06:40:03;4.90;;;1.75;;
61085;SDS011;46967;48.876;2.136;2022-08-27T06:42:29;6.60;;;1.92;;
61085;SDS011;46967;48.876;2.136;2022-08-27T06:44:55;5.13;;;1.80;;
61085;SDS011;46967;48.876;2.136;2022-08-27T06:47:20;6.57;;;2.35;;
61085;SDS011;46967;48.876;2.136;2022-08-27T06:49:46;6.50;;;2.13;;
61085;SDS011;46967;48.876;2.136;2022-08-27T06:52:12;7.85;;;2.30;;
61085;SDS011;46967;48.876;2.136;2022-08-27T06:54:38;6.55;;;1.80;;
61085;SDS011;46967;48.876;2.136;2022-08-27T06:57:04;7.07;;;2.30;;
61085;SDS011;46967;48.876;2.136;2022-08-27T06:59:29;6.18;;;1.85;;
61085;SDS011;46967;48.876;2.136;2022-08-27T07:01:55;5.45;;;2.05;;
61085;SDS011;46967;48.876;2.136;2022-08-27T07:04:22;8.43;;;1.60;;
61085;SDS011;46967;48.876;2.136;2022-08-27T07:06:49;6.28;;;1.95;;
61085;SDS011;46967;48.876;2.136;2022-08-27T07:09:15;4.32;;;1.50;;
61085;SDS011;46967;48.876;2.136;2022-08-27T07:11:41;4.28;;;1.90;;
61085;SDS011;46967;48.876;2.136;2022-08-27T07:14:07;8.57;;;1.88;;
61085;SDS011;46967;48.876;2.136;2022-08-27T07:16:33;6.35;;;1.70;;
61085;SDS011;46967;48.876;2.136;2022-08-27T07:19:01;5.25;;;1.92;;
61085;SDS011;46967;48.876;2.136;2022-08-27T07:21:28;9.80;;;2.00;;
61085;SDS011;46967;48.876;2.136;2022-08-27T07:23:54;3.70;;;1.60;;
61085;SDS011;46967;48.876;2.136;2022-08-27T07:26:23;7.85;;;2.13;;
61085;SDS011;46967;48.876;2.136;2022-08-27T07:28:49;8.18;;;1.98;;
61085;SDS011;46967;48.876;2.136;2022-08-27T07:31:17;6.10;;;2.08;;
61085;SDS011;46967;48.876;2.136;2022-08-27T07:33:44;10.13;;;2.50;;
61085;SDS011;46967;48.876;2.136;2022-08-27T07:36:11;7.78;;;2.40;;
61085;SDS011;46967;48.876;2.136;2022-08-27T07:38:36;14.30;;;2.67;;
61085;SDS011;46967;48.876;2.136;2022-08-27T07:41:09;9.20;;;2.78;;
61085;SDS011;46967;48.876;2.136;2022-08-27T07:43:36;6.38;;;2.03;;
61085;SDS011;46967;48.876;2.136;2022-08-27T07:46:20;7.07;;;2.25;;
61085;SDS011;46967;48.876;2.136;2022-08-27T07:48:48;6.88;;;2.03;;
61085;SDS011;46967;48.876;2.136;2022-08-27T07:51:16;6.68;;;2.05;;
61085;SDS011;46967;48.876;2.136;2022-08-27T07:53:44;4.53;;;1.98;;
61085;SDS011;46967;48.876;2.136;2022-08-27T07:56:10;7.65;;;2.63;;
61085;SDS011;46967;48.876;2.136;2022-08-27T07:58:36;3.90;;;1.65;;
61085;SDS011;46967;48.876;2.136;2022-08-27T08:01:02;9.18;;;2.08;;
61085;SDS011;46967;48.876;2.136;2022-08-27T08:03:27;9.38;;;2.47;;
61085;SDS011;46967;48.876;2.136;2022-08-27T08:05:54;9.85;;;2.92;;
61085;SDS011;46967;48.876;2.136;2022-08-27T08:08:20;8.75;;;2.08;;
61085;SDS011;46967;48.876;2.136;2022-08-27T08:10:46;8.10;;;2.40;;
61085;SDS011;46967;48.876;2.136;2022-08-27T08:13:12;11.95;;;2.40;;
61085;SDS011;46967;48.876;2.136;2022-08-27T08:15:42;6.97;;;2.20;;
61085;SDS011;46967;48.876;2.136;2022-08-27T08:18:08;7.45;;;1.73;;
61085;SDS011;46967;48.876;2.136;2022-08-27T08:20:34;10.15;;;2.35;;
61085;SDS011;46967;48.876;2.136;2022-08-27T08:22:59;9.85;;;2.63;;
61085;SDS011;46967;48.876;2.136;2022-08-27T08:25:25;8.35;;;2.28;;
61085;SDS011;46967;48.876;2.136;2022-08-27T08:27:50;6.65;;;2.25;;
61085;SDS011;46967;48.876;2.136;2022-08-27T08:30:16;11.57;;;2.22;;
61085;SDS011;46967;48.876;2.136;2022-08-27T08:32:41;8.00;;;2.42;;
61085;SDS011;46967;48.876;2.136;2022-08-27T08:35:07;5.57;;;2.00;;
61085;SDS011;46967;48.876;2.136;2022-08-27T08:37:34;4.80;;;2.08;;
61085;SDS011;46967;48.876;2.136;2022-08-27T08:40:00;5.70;;;2.13;;
61085;SDS011;46967;48.876;2.136;2022-08-27T08:42:35;7.55;;;2.00;;
61085;SDS011;46967;48.876;2.136;2022-08-27T08:45:03;11.27;;;2.30;;
61085;SDS011;46967;48.876;2.136;2022-08-27T08:47:40;7.55;;;2.85;;
61085;SDS011;46967;48.876;2.136;2022-08-27T08:50:12;7.70;;;2.13;;
61085;SDS011;46967;48.876;2.136;2022-08-27T08:57:52;4.80;;;1.58;;
61085;SDS011;46967;48.876;2.136;2022-08-27T09:00:21;4.38;;;1.65;;
61085;SDS011;46967;48.876;2.136;2022-08-27T09:02:50;11.35;;;2.30;;
61085;SDS011;46967;48.876;2.136;2022-08-27T09:05:18;9.40;;;2.13;;
61085;SDS011;46967;48.876;2.136;2022-08-27T09:07:50;4.55;;;1.95;;
61085;SDS011;46967;48.876;2.136;2022-08-27T09:12:55;6.90;;;2.00;;
61085;SDS011;46967;48.876;2.136;2022-08-27T09:15:27;5.50;;;1.50;;
61085;SDS011;46967;48.876;2.136;2022-08-27T09:18:07;7.13;;;1.90;;
61085;SDS011;46967;48.876;2.136;2022-08-27T09:20:34;11.70;;;1.95;;
61085;SDS011;46967;48.876;2.136;2022-08-27T09:23:04;8.13;;;1.70;;
61085;SDS011;46967;48.876;2.136;2022-08-27T09:25:38;6.60;;;1.90;;
61085;SDS011;46967;48.876;2.136;2022-08-27T09:28:07;8.45;;;2.00;;
61085;SDS011;46967;48.876;2.136;2022-08-27T09:30:58;10.77;;;1.75;;
61085;SDS011;46967;48.876;2.136;2022-08-27T09:33:29;11.07;;;2.28;;
61085;SDS011;46967;48.876;2.136;2022-08-27T09:35:54;7.80;;;1.75;;
61085;SDS011;46967;48.876;2.136;2022-08-27T09:38:26;6.70;;;1.73;;
61085;SDS011;46967;48.876;2.136;2022-08-27T09:40:55;5.70;;;1.50;;
61085;SDS011;46967;48.876;2.136;2022-08-27T09:43:25;4.43;;;1.50;;
61085;SDS011;46967;48.876;2.136;2022-08-27T09:45:56;7.32;;;1.52;;
61085;SDS011;46967;48.876;2.136;2022-08-27T09:48:25;5.40;;;1.60;;
61085;SDS011;46967;48.876;2.136;2022-08-27T09:50:59;8.13;;;1.52;;
61085;SDS011;46967;48.876;2.136;2022-08-27T09:56:07;7.70;;;1.70;;
61085;SDS011;46967;48.876;2.136;2022-08-27T09:58:58;6.63;;;1.58;;
61085;SDS011;46967;48.876;2.136;2022-08-27T10:01:25;6.20;;;1.52;;
61085;SDS011;46967;48.876;2.136;2022-08-27T10:04:03;4.25;;;1.40;;
61085;SDS011;46967;48.876;2.136;2022-08-27T10:06:30;3.78;;;1.50;;
61085;SDS011;46967;48.876;2.136;2022-08-27T10:08:59;5.15;;;1.67;;
61085;SDS011;46967;48.876;2.136;2022-08-27T10:11:39;5.57;;;1.58;;
61085;SDS011;46967;48.876;2.136;2022-08-27T10:14:30;3.88;;;1.15;;
61085;SDS011;46967;48.876;2.136;2022-08-27T10:22:32;5.75;;;1.67;;
61085;SDS011;46967;48.876;2.136;2022-08-27T10:28:04;3.63;;;1.40;;
61085;SDS011;46967;48.876;2.136;2022-08-27T10:33:42;7.82;;;1.25;;
61085;SDS011;46967;48.876;2.136;2022-08-27T10:41:32;5.13;;;1.20;;
61085;SDS011;46967;48.876;2.136;2022-08-27T10:57:53;6.65;;;1.73;;
61085;SDS011;46967;48.876;2.136;2022-08-27T11:00:24;5.30;;;1.67;;
61085;SDS011;46967;48.876;2.136;2022-08-27T11:03:26;7.32;;;1.90;;
61085;SDS011;46967;48.876;2.136;2022-08-27T11:05:53;5.07;;;1.60;;
61085;SDS011;46967;48.876;2.136;2022-08-27T11:08:23;3.58;;;1.48;;
61085;SDS011;46967;48.876;2.136;2022-08-27T11:10:57;6.65;;;1.67;;
61085;SDS011;46967;48.876;2.136;2022-08-27T11:13:33;4.20;;;1.88;;
61085;SDS011;46967;48.876;2.136;2022-08-27T11:16:13;5.32;;;1.73;;
61085;SDS011;46967;48.876;2.136;2022-08-27T11:18:43;4.72;;;2.00;;
61085;SDS011;46967;48.876;2.136;2022-08-27T11:26:40;6.32;;;1.95;;
61085;SDS011;46967;48.876;2.136;2022-08-27T11:29:15;3.72;;;1.60;;
61085;SDS011;46967;48.876;2.136;2022-08-27T11:31:54;3.42;;;1.60;;
61085;SDS011;46967;48.876;2.136;2022-08-27T11:34:42;7.05;;;1.50;;
61085;SDS011;46967;48.876;2.136;2022-08-27T11:37:25;5.53;;;1.67;;
61085;SDS011;46967;48.876;2.136;2022-08-27T11:43:27;9.05;;;1.75;;
61085;SDS011;46967;48.876;2.136;2022-08-27T11:45:58;3.08;;;1.50;;
61085;SDS011;46967;48.876;2.136;2022-08-27T11:48:30;3.65;;;1.85;;
61085;SDS011;46967;48.876;2.136;2022-08-27T11:50:59;3.05;;;1.42;;
61085;SDS011;46967;48.876;2.136;2022-08-27T11:53:34;4.63;;;1.70;;
61085;SDS011;46967;48.876;2.136;2022-08-27T11:56:14;4.68;;;1.63;;
61085;SDS011;46967;48.876;2.136;2022-08-27T11:58:44;4.18;;;1.33;;
61085;SDS011;46967;48.876;2.136;2022-08-27T12:01:26;3.85;;;1.63;;
61085;SDS011;46967;48.876;2.136;2022-08-27T12:04:00;3.38;;;1.40;;
61085;SDS011;46967;48.876;2.136;2022-08-27T12:06:42;4.45;;;1.58;;
61085;SDS011;46967;48.876;2.136;2022-08-27T12:09:13;5.90;;;1.60;;
61085;SDS011;46967;48.876;2.136;2022-08-27T12:19:24;3.97;;;1.40;;
61085;SDS011;46967;48.876;2.136;2022-08-27T12:29:51;4.70;;;1.63;;
61085;SDS011;46967;48.876;2.136;2022-08-27T12:32:38;3.05;;;1.55;;
61085;SDS011;46967;48.876;2.136;2022-08-27T12:35:09;6.25;;;1.88;;
61085;SDS011;46967;48.876;2.136;2022-08-27T12:40:22;2.25;;;1.33;;
61085;SDS011;46967;48.876;2.136;2022-08-27T12:42:48;6.53;;;1.60;;
61085;SDS011;46967;48.876;2.136;2022-08-27T12:45:22;3.58;;;1.38;;
61085;SDS011;46967;48.876;2.136;2022-08-27T12:47:50;6.25;;;1.67;;
61085;SDS011;46967;48.876;2.136;2022-08-27T12:50:24;2.70;;;1.48;;
61085;SDS011;46967;48.876;2.136;2022-08-27T13:04:20;5.78;;;1.40;;
61085;SDS011;46967;48.876;2.136;2022-08-27T13:06:49;3.63;;;1.48;;
61085;SDS011;46967;48.876;2.136;2022-08-27T13:09:23;5.13;;;1.70;;
61085;SDS011;46967;48.876;2.136;2022-08-27T13:11:54;3.47;;;1.53;;
61085;SDS011;46967;48.876;2.136;2022-08-27T13:14:22;7.25;;;1.50;;
61085;SDS011;46967;48.876;2.136;2022-08-27T13:16:56;4.28;;;1.50;;
61085;SDS011;46967;48.876;2.136;2022-08-27T13:21:56;2.20;;;1.30;;
61085;SDS011;46967;48.876;2.136;2022-08-27T13:24:30;3.10;;;1.40;;
61085;SDS011;46967;48.876;2.136;2022-08-27T13:26:58;2.42;;;0.98;;
61085;SDS011;46967;48.876;2.136;2022-08-27T13:29:24;8.52;;;1.27;;
61085;SDS011;46967;48.876;2.136;2022-08-27T13:31:50;2.00;;;1.10;;
61085;SDS011;46967;48.876;2.136;2022-08-27T13:34:17;2.00;;;0.90;;
61085;SDS011;46967;48.876;2.136;2022-08-27T13:39:31;5.03;;;1.30;;
61085;SDS011;46967;48.876;2.136;2022-08-27T13:41:58;3.25;;;1.20;;
61085;SDS011;46967;48.876;2.136;2022-08-27T13:44:28;4.15;;;1.42;;
61085;SDS011;46967;48.876;2.136;2022-08-27T13:47:03;3.45;;;1.13;;
61085;SDS011;46967;48.876;2.136;2022-08-27T13:49:31;4.22;;;1.02;;
61085;SDS011;46967;48.876;2.136;2022-08-27T13:52:22;2.63;;;1.15;;
61085;SDS011;46967;48.876;2.136;2022-08-27T13:55:06;2.63;;;1.20;;
61085;SDS011;46967;48.876;2.136;2022-08-27T13:57:42;2.05;;;1.15;;
61085;SDS011;46967;48.876;2.136;2022-08-27T14:00:13;2.03;;;1.20;;
61085;SDS011;46967;48.876;2.136;2022-08-27T14:02:41;2.20;;;0.95;;
61085;SDS011;46967;48.876;2.136;2022-08-27T14:05:09;3.58;;;1.10;;
61085;SDS011;46967;48.876;2.136;2022-08-27T14:07:47;3.20;;;1.00;;
61085;SDS011;46967;48.876;2.136;2022-08-27T14:13:38;3.63;;;1.25;;
61085;SDS011;46967;48.876;2.136;2022-08-27T14:15:49;2.67;;;0.95;;
61085;SDS011;46967;48.876;2.136;2022-08-27T14:18:26;3.13;;;1.02;;
61085;SDS011;46967;48.876;2.136;2022-08-27T14:21:02;2.75;;;1.10;;
61085;SDS011;46967;48.876;2.136;2022-08-27T14:23:28;3.75;;;1.23;;
61085;SDS011;46967;48.876;2.136;2022-08-27T14:25:57;3.00;;;1.33;;
61085;SDS011;46967;48.876;2.136;2022-08-27T14:28:24;1.60;;;1.10;;
61085;SDS011;46967;48.876;2.136;2022-08-27T14:30:49;3.10;;;1.00;;
61085;SDS011;46967;48.876;2.136;2022-08-27T14:33:15;3.25;;;1.20;;
61085;SDS011;46967;48.876;2.136;2022-08-27T14:35:41;4.82;;;1.15;;
61085;SDS011;46967;48.876;2.136;2022-08-27T14:38:17;3.70;;;1.00;;
61085;SDS011;46967;48.876;2.136;2022-08-27T14:40:46;4.70;;;0.95;;
61085;SDS011;46967;48.876;2.136;2022-08-27T14:43:13;3.83;;;1.02;;
61085;SDS011;46967;48.876;2.136;2022-08-27T14:45:39;2.42;;;0.98;;
61085;SDS011;46967;48.876;2.136;2022-08-27T14:48:06;2.35;;;0.98;;
61085;SDS011;46967;48.876;2.136;2022-08-27T14:50:34;5.07;;;1.10;;
61085;SDS011;46967;48.876;2.136;2022-08-27T14:53:01;4.90;;;1.40;;
61085;SDS011;46967;48.876;2.136;2022-08-27T14:55:27;1.95;;;0.90;;
61085;SDS011;46967;48.876;2.136;2022-08-27T14:57:52;4.07;;;1.20;;
61085;SDS011;46967;48.876;2.136;2022-08-27T15:00:17;3.35;;;1.30;;
61085;SDS011;46967;48.876;2.136;2022-08-27T15:02:44;5.65;;;1.27;;
61085;SDS011;46967;48.876;2.136;2022-08-27T15:05:12;2.47;;;0.95;;
61085;SDS011;46967;48.876;2.136;2022-08-27T15:07:37;3.13;;;1.40;;
61085;SDS011;46967;48.876;2.136;2022-08-27T15:10:03;2.28;;;1.05;;
61085;SDS011;46967;48.876;2.136;2022-08-27T15:12:29;3.00;;;1.20;;
61085;SDS011;46967;48.876;2.136;2022-08-27T15:14:54;3.28;;;1.15;;
61085;SDS011;46967;48.876;2.136;2022-08-27T15:17:20;2.35;;;1.00;;
61085;SDS011;46967;48.876;2.136;2022-08-27T15:19:45;3.47;;;0.90;;
61085;SDS011;46967;48.876;2.136;2022-08-27T15:22:15;3.72;;;0.90;;
61085;SDS011;46967;48.876;2.136;2022-08-27T15:24:44;2.70;;;0.98;;
61085;SDS011;46967;48.876;2.136;2022-08-27T15:27:12;4.30;;;1.10;;
61085;SDS011;46967;48.876;2.136;2022-08-27T15:29:37;4.43;;;0.93;;
61085;SDS011;46967;48.876;2.136;2022-08-27T15:32:03;1.95;;;1.00;;
61085;SDS011;46967;48.876;2.136;2022-08-27T15:34:29;5.68;;;1.40;;
61085;SDS011;46967;48.876;2.136;2022-08-27T15:36:54;4.07;;;1.10;;
61085;SDS011;46967;48.876;2.136;2022-08-27T15:39:21;2.85;;;1.02;;
61085;SDS011;46967;48.876;2.136;2022-08-27T15:41:46;4.22;;;1.13;;
61085;SDS011;46967;48.876;2.136;2022-08-27T15:44:12;3.67;;;1.27;;
61085;SDS011;46967;48.876;2.136;2022-08-27T15:46:37;3.70;;;1.30;;
61085;SDS011;46967;48.876;2.136;2022-08-27T15:49:03;3.42;;;1.10;;
61085;SDS011;46967;48.876;2.136;2022-08-27T15:51:30;2.40;;;1.02;;
61085;SDS011;46967;48.876;2.136;2022-08-27T15:53:58;3.90;;;1.20;;
61085;SDS011;46967;48.876;2.136;2022-08-27T15:56:24;6.82;;;1.20;;
61085;SDS011;46967;48.876;2.136;2022-08-27T15:58:50;4.55;;;1.20;;
61085;SDS011;46967;48.876;2.136;2022-08-27T16:01:26;2.20;;;0.98;;
61085;SDS011;46967;48.876;2.136;2022-08-27T16:03:54;3.08;;;0.90;;
61085;SDS011;46967;48.876;2.136;2022-08-27T16:06:20;8.80;;;1.23;;
61085;SDS011;46967;48.876;2.136;2022-08-27T16:08:46;2.03;;;1.00;;
61085;SDS011;46967;48.876;2.136;2022-08-27T16:11:11;4.10;;;1.10;;
61085;SDS011;46967;48.876;2.136;2022-08-27T16:13:37;3.83;;;1.20;;
61085;SDS011;46967;48.876;2.136;2022-08-27T16:16:03;2.40;;;1.20;;
61085;SDS011;46967;48.876;2.136;2022-08-27T16:18:31;2.75;;;1.02;;
61085;SDS011;46967;48.876;2.136;2022-08-27T16:20:58;1.50;;;1.08;;
61085;SDS011;46967;48.876;2.136;2022-08-27T16:23:25;2.13;;;1.00;;
61085;SDS011;46967;48.876;2.136;2022-08-27T16:25:51;2.33;;;1.00;;
61085;SDS011;46967;48.876;2.136;2022-08-27T16:28:17;6.22;;;1.58;;
61085;SDS011;46967;48.876;2.136;2022-08-27T16:30:43;4.32;;;1.20;;